sensor_id;sensor_type;location;lat;lon;timestamp;P1;durP1;ratioP1;P2;durP2;ratioP2
49310;SDS011;35177;45.900;5.946;2023-04-23T00:00:48;6.80;;;3.00;;
49310;SDS011;35177;45.900;5.946;2023-04-23T00:03:15;2.92;;;2.00;;
49310;SDS011;35177;45.900;5.946;2023-04-23T00:05:43;2.75;;;2.28;;
49310;SDS011;35177;45.900;5.946;2023-04-23T00:08:08;4.75;;;2.53;;
49310;SDS011;35177;45.900;5.946;2023-04-23T00:10:34;10.07;;;2.80;;
49310;SDS011;35177;45.900;5.946;2023-04-23T00:12:59;3.65;;;2.17;;
49310;SDS011;35177;45.900;5.946;2023-04-23T00:15:25;4.78;;;2.83;;
49310;SDS011;35177;45.900;5.946;2023-04-23T00:17:51;4.25;;;2.40;;
49310;SDS011;35177;45.900;5.946;2023-04-23T00:20:16;5.18;;;2.60;;
49310;SDS011;35177;45.900;5.946;2023-04-23T00:22:44;2.95;;;2.40;;
49310;SDS011;35177;45.900;5.946;2023-04-23T00:25:10;5.40;;;2.70;;
49310;SDS011;35177;45.900;5.946;2023-04-23T00:27:35;4.63;;;2.72;;
49310;SDS011;35177;45.900;5.946;2023-04-23T00:30:01;4.63;;;2.88;;
49310;SDS011;35177;45.900;5.946;2023-04-23T00:32:27;6.55;;;3.03;;
49310;SDS011;35177;45.900;5.946;2023-04-23T00:34:52;4.20;;;2.60;;
49310;SDS011;35177;45.900;5.946;2023-04-23T00:37:19;5.47;;;3.15;;
49310;SDS011;35177;45.900;5.946;2023-04-23T00:39:44;7.05;;;2.45;;
49310;SDS011;35177;45.900;5.946;2023-04-23T00:42:09;5.53;;;2.60;;
49310;SDS011;35177;45.900;5.946;2023-04-23T00:44:38;6.25;;;2.67;;
49310;SDS011;35177;45.900;5.946;2023-04-23T00:47:04;5.40;;;2.63;;
49310;SDS011;35177;45.900;5.946;2023-04-23T00:49:29;5.00;;;2.80;;
49310;SDS011;35177;45.900;5.946;2023-04-23T00:51:55;6.95;;;2.92;;
49310;SDS011;35177;45.900;5.946;2023-04-23T00:54:20;6.35;;;2.88;;
49310;SDS011;35177;45.900;5.946;2023-04-23T00:56:46;5.57;;;3.47;;
49310;SDS011;35177;45.900;5.946;2023-04-23T00:59:11;6.78;;;4.07;;
49310;SDS011;35177;45.900;5.946;2023-04-23T01:01:37;6.55;;;3.17;;
49310;SDS011;35177;45.900;5.946;2023-04-23T01:04:02;6.63;;;2.75;;
49310;SDS011;35177;45.900;5.946;2023-04-23T01:06:27;8.65;;;3.40;;
49310;SDS011;35177;45.900;5.946;2023-04-23T01:08:54;4.88;;;3.33;;
49310;SDS011;35177;45.900;5.946;2023-04-23T01:11:19;4.90;;;3.13;;
49310;SDS011;35177;45.900;5.946;2023-04-23T01:13:44;6.10;;;3.08;;
49310;SDS011;35177;45.900;5.946;2023-04-23T01:16:10;5.97;;;3.90;;
49310;SDS011;35177;45.900;5.946;2023-04-23T01:18:35;6.00;;;3.47;;
49310;SDS011;35177;45.900;5.946;2023-04-23T01:21:01;7.72;;;3.30;;
49310;SDS011;35177;45.900;5.946;2023-04-23T01:23:26;5.68;;;3.22;;
49310;SDS011;35177;45.900;5.946;2023-04-23T01:25:52;5.60;;;3.00;;
49310;SDS011;35177;45.900;5.946;2023-04-23T01:28:17;4.55;;;3.25;;
49310;SDS011;35177;45.900;5.946;2023-04-23T01:30:43;5.07;;;3.08;;
49310;SDS011;35177;45.900;5.946;2023-04-23T01:33:09;4.82;;;3.17;;
49310;SDS011;35177;45.900;5.946;2023-04-23T01:35:35;10.93;;;3.40;;
49310;SDS011;35177;45.900;5.946;2023-04-23T01:38:01;5.50;;;3.50;;
49310;SDS011;35177;45.900;5.946;2023-04-23T01:40:27;7.03;;;3.42;;
49310;SDS011;35177;45.900;5.946;2023-04-23T01:42:52;5.72;;;3.00;;
49310;SDS011;35177;45.900;5.946;2023-04-23T01:45:17;7.72;;;3.05;;
49310;SDS011;35177;45.900;5.946;2023-04-23T01:47:43;3.45;;;2.35;;
49310;SDS011;35177;45.900;5.946;2023-04-23T01:50:09;6.90;;;2.70;;
49310;SDS011;35177;45.900;5.946;2023-04-23T01:52:34;7.53;;;2.72;;
49310;SDS011;35177;45.900;5.946;2023-04-23T01:55:00;7.50;;;2.75;;
49310;SDS011;35177;45.900;5.946;2023-04-23T01:57:26;5.15;;;2.90;;
49310;SDS011;35177;45.900;5.946;2023-04-23T01:59:53;5.18;;;3.38;;
49310;SDS011;35177;45.900;5.946;2023-04-23T02:02:21;6.47;;;3.17;;
49310;SDS011;35177;45.900;5.946;2023-04-23T02:04:47;8.15;;;2.90;;
49310;SDS011;35177;45.900;5.946;2023-04-23T02:07:14;8.07;;;3.20;;
49310;SDS011;35177;45.900;5.946;2023-04-23T02:09:39;4.57;;;2.90;;
49310;SDS011;35177;45.900;5.946;2023-04-23T02:12:04;5.15;;;3.03;;
49310;SDS011;35177;45.900;5.946;2023-04-23T02:14:30;5.38;;;3.13;;
49310;SDS011;35177;45.900;5.946;2023-04-23T02:16:55;5.15;;;3.03;;
49310;SDS011;35177;45.900;5.946;2023-04-23T02:19:21;5.03;;;3.00;;
49310;SDS011;35177;45.900;5.946;2023-04-23T02:21:47;6.28;;;3.60;;
49310;SDS011;35177;45.900;5.946;2023-04-23T02:24:12;5.60;;;3.92;;
49310;SDS011;35177;45.900;5.946;2023-04-23T02:26:37;7.72;;;3.85;;
49310;SDS011;35177;45.900;5.946;2023-04-23T02:29:02;6.90;;;3.85;;
49310;SDS011;35177;45.900;5.946;2023-04-23T02:31:28;5.38;;;3.33;;
49310;SDS011;35177;45.900;5.946;2023-04-23T02:33:53;8.80;;;4.38;;
49310;SDS011;35177;45.900;5.946;2023-04-23T02:36:18;9.65;;;4.15;;
49310;SDS011;35177;45.900;5.946;2023-04-23T02:38:44;4.70;;;3.10;;
49310;SDS011;35177;45.900;5.946;2023-04-23T02:41:11;5.43;;;3.85;;
49310;SDS011;35177;45.900;5.946;2023-04-23T02:43:36;5.05;;;3.53;;
49310;SDS011;35177;45.900;5.946;2023-04-23T02:46:02;4.15;;;3.25;;
49310;SDS011;35177;45.900;5.946;2023-04-23T02:48:33;3.80;;;3.38;;
49310;SDS011;35177;45.900;5.946;2023-04-23T02:50:58;3.53;;;2.90;;
49310;SDS011;35177;45.900;5.946;2023-04-23T02:53:24;4.28;;;3.53;;
49310;SDS011;35177;45.900;5.946;2023-04-23T02:55:49;7.20;;;3.60;;
49310;SDS011;35177;45.900;5.946;2023-04-23T02:58:14;5.88;;;3.33;;
49310;SDS011;35177;45.900;5.946;2023-04-23T03:00:40;7.78;;;3.20;;
49310;SDS011;35177;45.900;5.946;2023-04-23T03:03:05;6.05;;;3.40;;
49310;SDS011;35177;45.900;5.946;2023-04-23T03:05:30;6.55;;;3.05;;
49310;SDS011;35177;45.900;5.946;2023-04-23T03:07:56;5.43;;;3.65;;
49310;SDS011;35177;45.900;5.946;2023-04-23T03:10:21;5.57;;;4.00;;
49310;SDS011;35177;45.900;5.946;2023-04-23T03:12:46;7.85;;;4.63;;
49310;SDS011;35177;45.900;5.946;2023-04-23T03:15:11;13.32;;;5.13;;
49310;SDS011;35177;45.900;5.946;2023-04-23T03:17:37;8.68;;;4.57;;
49310;SDS011;35177;45.900;5.946;2023-04-23T03:20:03;6.80;;;4.57;;
49310;SDS011;35177;45.900;5.946;2023-04-23T03:22:28;9.15;;;4.30;;
49310;SDS011;35177;45.900;5.946;2023-04-23T03:24:53;6.68;;;4.18;;
49310;SDS011;35177;45.900;5.946;2023-04-23T03:27:19;8.88;;;4.28;;
49310;SDS011;35177;45.900;5.946;2023-04-23T03:29:44;9.25;;;4.80;;
49310;SDS011;35177;45.900;5.946;2023-04-23T03:32:10;7.25;;;4.10;;
49310;SDS011;35177;45.900;5.946;2023-04-23T03:34:35;9.90;;;4.63;;
49310;SDS011;35177;45.900;5.946;2023-04-23T03:37:00;5.32;;;3.65;;
49310;SDS011;35177;45.900;5.946;2023-04-23T03:39:26;7.28;;;3.78;;
49310;SDS011;35177;45.900;5.946;2023-04-23T03:41:51;8.15;;;3.53;;
49310;SDS011;35177;45.900;5.946;2023-04-23T03:44:16;5.47;;;3.70;;
49310;SDS011;35177;45.900;5.946;2023-04-23T03:46:42;4.82;;;3.70;;
49310;SDS011;35177;45.900;5.946;2023-04-23T03:49:07;5.20;;;3.38;;
49310;SDS011;35177;45.900;5.946;2023-04-23T03:51:32;7.95;;;4.10;;
49310;SDS011;35177;45.900;5.946;2023-04-23T03:53:57;8.77;;;3.75;;
49310;SDS011;35177;45.900;5.946;2023-04-23T03:56:23;8.27;;;4.25;;
49310;SDS011;35177;45.900;5.946;2023-04-23T03:58:48;5.32;;;3.70;;
49310;SDS011;35177;45.900;5.946;2023-04-23T04:01:13;6.13;;;3.42;;
49310;SDS011;35177;45.900;5.946;2023-04-23T04:03:39;4.95;;;4.28;;
49310;SDS011;35177;45.900;5.946;2023-04-23T04:06:04;4.80;;;3.08;;
49310;SDS011;35177;45.900;5.946;2023-04-23T04:08:29;7.80;;;3.83;;
49310;SDS011;35177;45.900;5.946;2023-04-23T04:10:55;7.40;;;3.90;;
49310;SDS011;35177;45.900;5.946;2023-04-23T04:13:20;6.00;;;3.88;;
49310;SDS011;35177;45.900;5.946;2023-04-23T04:15:45;4.78;;;4.18;;
49310;SDS011;35177;45.900;5.946;2023-04-23T04:18:11;8.10;;;4.18;;
49310;SDS011;35177;45.900;5.946;2023-04-23T04:20:36;6.55;;;4.20;;
49310;SDS011;35177;45.900;5.946;2023-04-23T04:23:01;7.95;;;3.95;;
49310;SDS011;35177;45.900;5.946;2023-04-23T04:25:27;5.53;;;3.67;;
49310;SDS011;35177;45.900;5.946;2023-04-23T04:27:53;6.90;;;3.80;;
49310;SDS011;35177;45.900;5.946;2023-04-23T04:30:19;7.95;;;3.95;;
49310;SDS011;35177;45.900;5.946;2023-04-23T04:32:45;6.78;;;3.92;;
49310;SDS011;35177;45.900;5.946;2023-04-23T04:35:11;7.43;;;4.15;;
49310;SDS011;35177;45.900;5.946;2023-04-23T04:37:39;5.55;;;4.43;;
49310;SDS011;35177;45.900;5.946;2023-04-23T04:40:06;6.63;;;4.20;;
49310;SDS011;35177;45.900;5.946;2023-04-23T04:42:31;6.22;;;3.92;;
49310;SDS011;35177;45.900;5.946;2023-04-23T04:44:57;5.70;;;4.05;;
49310;SDS011;35177;45.900;5.946;2023-04-23T04:47:23;7.15;;;3.45;;
49310;SDS011;35177;45.900;5.946;2023-04-23T04:49:48;6.32;;;3.80;;
49310;SDS011;35177;45.900;5.946;2023-04-23T04:52:14;6.15;;;4.10;;
49310;SDS011;35177;45.900;5.946;2023-04-23T04:54:39;4.57;;;4.03;;
49310;SDS011;35177;45.900;5.946;2023-04-23T04:57:05;9.15;;;6.30;;
49310;SDS011;35177;45.900;5.946;2023-04-23T04:59:30;8.60;;;6.15;;
49310;SDS011;35177;45.900;5.946;2023-04-23T05:01:56;9.13;;;5.10;;
49310;SDS011;35177;45.900;5.946;2023-04-23T05:04:21;11.43;;;5.30;;
49310;SDS011;35177;45.900;5.946;2023-04-23T05:06:46;6.53;;;4.93;;
49310;SDS011;35177;45.900;5.946;2023-04-23T05:09:12;7.70;;;4.70;;
49310;SDS011;35177;45.900;5.946;2023-04-23T05:11:37;8.73;;;5.28;;
49310;SDS011;35177;45.900;5.946;2023-04-23T05:14:03;9.50;;;4.63;;
49310;SDS011;35177;45.900;5.946;2023-04-23T05:16:28;8.00;;;5.15;;
49310;SDS011;35177;45.900;5.946;2023-04-23T05:18:54;6.55;;;4.60;;
49310;SDS011;35177;45.900;5.946;2023-04-23T05:21:19;10.60;;;4.60;;
49310;SDS011;35177;45.900;5.946;2023-04-23T05:23:45;4.40;;;3.97;;
49310;SDS011;35177;45.900;5.946;2023-04-23T05:26:10;4.80;;;3.67;;
49310;SDS011;35177;45.900;5.946;2023-04-23T05:28:35;7.05;;;3.38;;
49310;SDS011;35177;45.900;5.946;2023-04-23T05:31:00;4.72;;;3.08;;
49310;SDS011;35177;45.900;5.946;2023-04-23T05:33:26;5.80;;;3.22;;
49310;SDS011;35177;45.900;5.946;2023-04-23T05:35:52;5.50;;;4.07;;
49310;SDS011;35177;45.900;5.946;2023-04-23T05:38:17;8.00;;;4.07;;
49310;SDS011;35177;45.900;5.946;2023-04-23T05:40:42;6.45;;;4.55;;
49310;SDS011;35177;45.900;5.946;2023-04-23T05:43:08;7.32;;;4.93;;
49310;SDS011;35177;45.900;5.946;2023-04-23T05:45:33;7.03;;;4.45;;
49310;SDS011;35177;45.900;5.946;2023-04-23T05:47:58;7.35;;;5.38;;
49310;SDS011;35177;45.900;5.946;2023-04-23T05:50:24;8.57;;;5.35;;
49310;SDS011;35177;45.900;5.946;2023-04-23T05:52:49;6.70;;;5.53;;
49310;SDS011;35177;45.900;5.946;2023-04-23T05:55:15;15.13;;;6.22;;
49310;SDS011;35177;45.900;5.946;2023-04-23T05:57:40;9.65;;;5.65;;
49310;SDS011;35177;45.900;5.946;2023-04-23T06:00:05;8.50;;;5.10;;
49310;SDS011;35177;45.900;5.946;2023-04-23T06:02:33;9.63;;;5.57;;
49310;SDS011;35177;45.900;5.946;2023-04-23T06:04:59;8.10;;;5.07;;
49310;SDS011;35177;45.900;5.946;2023-04-23T06:07:24;6.95;;;4.97;;
49310;SDS011;35177;45.900;5.946;2023-04-23T06:09:49;7.57;;;5.25;;
49310;SDS011;35177;45.900;5.946;2023-04-23T06:12:15;6.53;;;4.57;;
49310;SDS011;35177;45.900;5.946;2023-04-23T06:14:40;7.95;;;4.80;;
49310;SDS011;35177;45.900;5.946;2023-04-23T06:17:05;7.88;;;4.60;;
49310;SDS011;35177;45.900;5.946;2023-04-23T06:19:31;8.13;;;4.90;;
49310;SDS011;35177;45.900;5.946;2023-04-23T06:21:56;10.48;;;4.63;;
49310;SDS011;35177;45.900;5.946;2023-04-23T06:24:21;7.15;;;4.40;;
49310;SDS011;35177;45.900;5.946;2023-04-23T06:26:46;8.98;;;4.93;;
49310;SDS011;35177;45.900;5.946;2023-04-23T06:29:12;6.30;;;4.88;;
49310;SDS011;35177;45.900;5.946;2023-04-23T06:31:37;9.95;;;7.07;;
49310;SDS011;35177;45.900;5.946;2023-04-23T06:34:03;10.18;;;5.80;;
49310;SDS011;35177;45.900;5.946;2023-04-23T06:36:28;9.25;;;6.88;;
49310;SDS011;35177;45.900;5.946;2023-04-23T06:38:54;11.13;;;6.95;;
49310;SDS011;35177;45.900;5.946;2023-04-23T06:41:19;8.98;;;6.85;;
49310;SDS011;35177;45.900;5.946;2023-04-23T06:43:49;8.77;;;6.40;;
49310;SDS011;35177;45.900;5.946;2023-04-23T06:46:14;8.90;;;5.88;;
49310;SDS011;35177;45.900;5.946;2023-04-23T06:48:40;7.15;;;5.47;;
49310;SDS011;35177;45.900;5.946;2023-04-23T06:51:05;8.30;;;5.65;;
49310;SDS011;35177;45.900;5.946;2023-04-23T06:53:30;8.82;;;5.53;;
49310;SDS011;35177;45.900;5.946;2023-04-23T06:55:56;7.20;;;5.32;;
49310;SDS011;35177;45.900;5.946;2023-04-23T06:58:21;7.80;;;6.00;;
49310;SDS011;35177;45.900;5.946;2023-04-23T07:00:51;6.65;;;5.40;;
49310;SDS011;35177;45.900;5.946;2023-04-23T07:03:17;10.77;;;5.40;;
49310;SDS011;35177;45.900;5.946;2023-04-23T07:05:43;7.47;;;4.55;;
49310;SDS011;35177;45.900;5.946;2023-04-23T07:08:08;8.60;;;3.95;;
49310;SDS011;35177;45.900;5.946;2023-04-23T07:10:33;4.95;;;3.80;;
49310;SDS011;35177;45.900;5.946;2023-04-23T07:12:58;6.00;;;4.18;;
49310;SDS011;35177;45.900;5.946;2023-04-23T07:15:24;6.63;;;3.42;;
49310;SDS011;35177;45.900;5.946;2023-04-23T07:17:49;5.93;;;3.80;;
49310;SDS011;35177;45.900;5.946;2023-04-23T07:20:15;5.90;;;3.55;;
49310;SDS011;35177;45.900;5.946;2023-04-23T07:22:40;6.90;;;3.70;;
49310;SDS011;35177;45.900;5.946;2023-04-23T07:25:05;5.88;;;3.88;;
49310;SDS011;35177;45.900;5.946;2023-04-23T07:27:32;9.63;;;4.32;;
49310;SDS011;35177;45.900;5.946;2023-04-23T07:29:58;7.45;;;4.45;;
49310;SDS011;35177;45.900;5.946;2023-04-23T07:32:23;6.07;;;4.22;;
49310;SDS011;35177;45.900;5.946;2023-04-23T07:34:52;3.63;;;3.25;;
49310;SDS011;35177;45.900;5.946;2023-04-23T07:37:17;4.68;;;3.05;;
49310;SDS011;35177;45.900;5.946;2023-04-23T07:39:42;4.45;;;2.88;;
49310;SDS011;35177;45.900;5.946;2023-04-23T07:42:08;5.35;;;2.90;;
49310;SDS011;35177;45.900;5.946;2023-04-23T07:44:33;6.38;;;2.90;;
49310;SDS011;35177;45.900;5.946;2023-04-23T07:46:58;5.45;;;2.95;;
49310;SDS011;35177;45.900;5.946;2023-04-23T07:49:24;4.32;;;2.80;;
49310;SDS011;35177;45.900;5.946;2023-04-23T07:51:50;3.42;;;2.65;;
49310;SDS011;35177;45.900;5.946;2023-04-23T07:54:15;4.35;;;2.95;;
49310;SDS011;35177;45.900;5.946;2023-04-23T07:56:40;4.75;;;2.70;;
49310;SDS011;35177;45.900;5.946;2023-04-23T07:59:06;4.53;;;3.70;;
49310;SDS011;35177;45.900;5.946;2023-04-23T08:01:31;4.15;;;2.80;;
49310;SDS011;35177;45.900;5.946;2023-04-23T08:03:57;4.75;;;2.70;;
49310;SDS011;35177;45.900;5.946;2023-04-23T08:06:24;2.80;;;2.40;;
49310;SDS011;35177;45.900;5.946;2023-04-23T08:08:51;5.07;;;2.40;;
49310;SDS011;35177;45.900;5.946;2023-04-23T08:11:16;5.05;;;2.20;;
49310;SDS011;35177;45.900;5.946;2023-04-23T08:13:41;4.68;;;3.00;;
49310;SDS011;35177;45.900;5.946;2023-04-23T08:16:07;4.00;;;1.90;;
49310;SDS011;35177;45.900;5.946;2023-04-23T08:18:32;5.90;;;2.17;;
49310;SDS011;35177;45.900;5.946;2023-04-23T08:20:57;4.32;;;1.90;;
49310;SDS011;35177;45.900;5.946;2023-04-23T08:23:23;5.38;;;1.80;;
49310;SDS011;35177;45.900;5.946;2023-04-23T08:25:48;4.63;;;2.10;;
49310;SDS011;35177;45.900;5.946;2023-04-23T08:28:14;7.47;;;2.20;;
49310;SDS011;35177;45.900;5.946;2023-04-23T08:30:40;3.53;;;1.80;;
49310;SDS011;35177;45.900;5.946;2023-04-23T08:33:05;6.68;;;1.75;;
49310;SDS011;35177;45.900;5.946;2023-04-23T08:35:30;5.53;;;2.38;;
49310;SDS011;35177;45.900;5.946;2023-04-23T08:37:56;5.43;;;2.03;;
49310;SDS011;35177;45.900;5.946;2023-04-23T08:40:21;3.90;;;1.92;;
49310;SDS011;35177;45.900;5.946;2023-04-23T08:45:21;10.15;;;1.85;;
49310;SDS011;35177;45.900;5.946;2023-04-23T08:47:47;2.78;;;1.83;;
49310;SDS011;35177;45.900;5.946;2023-04-23T08:50:13;3.38;;;1.90;;
49310;SDS011;35177;45.900;5.946;2023-04-23T08:52:45;3.20;;;1.70;;
49310;SDS011;35177;45.900;5.946;2023-04-23T08:55:11;3.67;;;1.80;;
49310;SDS011;35177;45.900;5.946;2023-04-23T08:57:39;4.35;;;1.70;;
49310;SDS011;35177;45.900;5.946;2023-04-23T09:00:05;4.53;;;1.73;;
49310;SDS011;35177;45.900;5.946;2023-04-23T09:02:32;5.10;;;1.73;;
49310;SDS011;35177;45.900;5.946;2023-04-23T09:04:58;3.28;;;1.40;;
49310;SDS011;35177;45.900;5.946;2023-04-23T09:07:24;2.30;;;1.40;;
49310;SDS011;35177;45.900;5.946;2023-04-23T09:09:49;4.18;;;1.42;;
49310;SDS011;35177;45.900;5.946;2023-04-23T09:12:15;3.50;;;1.77;;
49310;SDS011;35177;45.900;5.946;2023-04-23T09:14:40;4.20;;;1.27;;
49310;SDS011;35177;45.900;5.946;2023-04-23T09:17:06;1.70;;;1.25;;
49310;SDS011;35177;45.900;5.946;2023-04-23T09:19:31;2.72;;;1.58;;
49310;SDS011;35177;45.900;5.946;2023-04-23T09:21:57;6.72;;;1.63;;
49310;SDS011;35177;45.900;5.946;2023-04-23T09:24:23;3.60;;;1.60;;
49310;SDS011;35177;45.900;5.946;2023-04-23T09:26:49;1.95;;;1.20;;
49310;SDS011;35177;45.900;5.946;2023-04-23T09:29:15;3.28;;;1.13;;
49310;SDS011;35177;45.900;5.946;2023-04-23T09:31:42;2.47;;;1.35;;
49310;SDS011;35177;45.900;5.946;2023-04-23T09:34:08;4.05;;;1.33;;
49310;SDS011;35177;45.900;5.946;2023-04-23T09:36:33;3.03;;;1.08;;
49310;SDS011;35177;45.900;5.946;2023-04-23T09:39:01;2.65;;;1.67;;
49310;SDS011;35177;45.900;5.946;2023-04-23T09:41:27;3.22;;;1.30;;
49310;SDS011;35177;45.900;5.946;2023-04-23T09:43:55;4.60;;;1.10;;
49310;SDS011;35177;45.900;5.946;2023-04-23T09:46:37;3.20;;;1.20;;
49310;SDS011;35177;45.900;5.946;2023-04-23T09:49:03;5.65;;;1.15;;
49310;SDS011;35177;45.900;5.946;2023-04-23T09:51:30;2.40;;;0.95;;
49310;SDS011;35177;45.900;5.946;2023-04-23T09:53:55;2.97;;;1.13;;
49310;SDS011;35177;45.900;5.946;2023-04-23T09:56:20;3.42;;;1.38;;
49310;SDS011;35177;45.900;5.946;2023-04-23T09:58:46;5.10;;;1.17;;
49310;SDS011;35177;45.900;5.946;2023-04-23T10:01:11;3.20;;;1.00;;
49310;SDS011;35177;45.900;5.946;2023-04-23T10:03:42;2.65;;;1.13;;
49310;SDS011;35177;45.900;5.946;2023-04-23T10:06:13;3.72;;;1.50;;
49310;SDS011;35177;45.900;5.946;2023-04-23T10:08:39;2.40;;;1.20;;
49310;SDS011;35177;45.900;5.946;2023-04-23T10:11:05;2.83;;;1.20;;
49310;SDS011;35177;45.900;5.946;2023-04-23T10:13:31;5.47;;;1.40;;
49310;SDS011;35177;45.900;5.946;2023-04-23T10:15:57;2.40;;;1.17;;
49310;SDS011;35177;45.900;5.946;2023-04-23T10:18:23;5.97;;;1.20;;
49310;SDS011;35177;45.900;5.946;2023-04-23T10:20:49;1.58;;;1.00;;
49310;SDS011;35177;45.900;5.946;2023-04-23T10:23:14;3.00;;;1.33;;
49310;SDS011;35177;45.900;5.946;2023-04-23T10:25:41;1.38;;;1.10;;
49310;SDS011;35177;45.900;5.946;2023-04-23T10:28:06;3.92;;;1.40;;
49310;SDS011;35177;45.900;5.946;2023-04-23T10:30:33;2.72;;;1.20;;
49310;SDS011;35177;45.900;5.946;2023-04-23T10:32:59;3.47;;;1.38;;
49310;SDS011;35177;45.900;5.946;2023-04-23T10:35:25;2.55;;;1.60;;
49310;SDS011;35177;45.900;5.946;2023-04-23T10:37:51;7.07;;;1.27;;
49310;SDS011;35177;45.900;5.946;2023-04-23T10:40:23;3.65;;;1.23;;
49310;SDS011;35177;45.900;5.946;2023-04-23T10:42:49;6.60;;;1.45;;
49310;SDS011;35177;45.900;5.946;2023-04-23T10:45:15;2.55;;;1.25;;
49310;SDS011;35177;45.900;5.946;2023-04-23T10:47:41;2.15;;;1.10;;
49310;SDS011;35177;45.900;5.946;2023-04-23T10:52:44;4.70;;;1.70;;
49310;SDS011;35177;45.900;5.946;2023-04-23T10:55:16;3.90;;;1.33;;
49310;SDS011;35177;45.900;5.946;2023-04-23T11:00:23;4.07;;;1.23;;
49310;SDS011;35177;45.900;5.946;2023-04-23T11:02:48;5.03;;;1.50;;
49310;SDS011;35177;45.900;5.946;2023-04-23T11:05:14;3.33;;;1.33;;
49310;SDS011;35177;45.900;5.946;2023-04-23T11:07:40;4.35;;;1.55;;
49310;SDS011;35177;45.900;5.946;2023-04-23T11:10:12;4.63;;;1.55;;
49310;SDS011;35177;45.900;5.946;2023-04-23T11:12:38;1.75;;;1.15;;
49310;SDS011;35177;45.900;5.946;2023-04-23T11:15:13;2.70;;;1.10;;
49310;SDS011;35177;45.900;5.946;2023-04-23T11:20:17;1.65;;;1.20;;
49310;SDS011;35177;45.900;5.946;2023-04-23T11:22:47;5.32;;;1.15;;
49310;SDS011;35177;45.900;5.946;2023-04-23T11:25:13;4.85;;;1.45;;
49310;SDS011;35177;45.900;5.946;2023-04-23T11:27:40;5.57;;;1.83;;
49310;SDS011;35177;45.900;5.946;2023-04-23T11:30:12;5.60;;;1.40;;
49310;SDS011;35177;45.900;5.946;2023-04-23T11:32:38;3.60;;;1.40;;
49310;SDS011;35177;45.900;5.946;2023-04-23T11:35:03;2.15;;;1.17;;
49310;SDS011;35177;45.900;5.946;2023-04-23T11:37:29;4.80;;;1.48;;
49310;SDS011;35177;45.900;5.946;2023-04-23T11:39:55;3.33;;;1.40;;
49310;SDS011;35177;45.900;5.946;2023-04-23T11:42:20;3.70;;;1.58;;
49310;SDS011;35177;45.900;5.946;2023-04-23T11:44:45;3.97;;;1.60;;
49310;SDS011;35177;45.900;5.946;2023-04-23T11:47:12;2.63;;;1.38;;
49310;SDS011;35177;45.900;5.946;2023-04-23T11:49:38;2.97;;;1.30;;
49310;SDS011;35177;45.900;5.946;2023-04-23T11:52:04;2.30;;;1.10;;
49310;SDS011;35177;45.900;5.946;2023-04-23T11:54:30;4.65;;;1.55;;
49310;SDS011;35177;45.900;5.946;2023-04-23T11:56:56;6.05;;;1.30;;
49310;SDS011;35177;45.900;5.946;2023-04-23T11:59:22;7.32;;;1.45;;
49310;SDS011;35177;45.900;5.946;2023-04-23T12:01:48;4.03;;;1.40;;
49310;SDS011;35177;45.900;5.946;2023-04-23T12:04:15;2.55;;;1.13;;
49310;SDS011;35177;45.900;5.946;2023-04-23T12:06:41;2.45;;;1.52;;
49310;SDS011;35177;45.900;5.946;2023-04-23T12:09:07;7.40;;;1.30;;
49310;SDS011;35177;45.900;5.946;2023-04-23T12:11:33;3.55;;;1.25;;
49310;SDS011;35177;45.900;5.946;2023-04-23T12:13:59;3.28;;;1.17;;
49310;SDS011;35177;45.900;5.946;2023-04-23T12:16:37;5.80;;;1.20;;
49310;SDS011;35177;45.900;5.946;2023-04-23T12:19:03;3.92;;;1.30;;
49310;SDS011;35177;45.900;5.946;2023-04-23T12:21:28;2.67;;;1.08;;
49310;SDS011;35177;45.900;5.946;2023-04-23T12:23:54;3.13;;;1.38;;
49310;SDS011;35177;45.900;5.946;2023-04-23T12:26:20;1.85;;;1.23;;
49310;SDS011;35177;45.900;5.946;2023-04-23T12:28:55;2.17;;;1.25;;
49310;SDS011;35177;45.900;5.946;2023-04-23T12:31:26;3.10;;;1.27;;
49310;SDS011;35177;45.900;5.946;2023-04-23T12:34:02;4.22;;;1.38;;
49310;SDS011;35177;45.900;5.946;2023-04-23T12:36:27;2.03;;;1.10;;
49310;SDS011;35177;45.900;5.946;2023-04-23T12:41:40;1.73;;;1.20;;
49310;SDS011;35177;45.900;5.946;2023-04-23T12:44:05;1.70;;;1.02;;
49310;SDS011;35177;45.900;5.946;2023-04-23T12:46:32;2.20;;;1.13;;
49310;SDS011;35177;45.900;5.946;2023-04-23T12:48:57;1.35;;;1.05;;
49310;SDS011;35177;45.900;5.946;2023-04-23T12:51:23;14.55;;;2.22;;
49310;SDS011;35177;45.900;5.946;2023-04-23T12:53:48;1.90;;;1.10;;
49310;SDS011;35177;45.900;5.946;2023-04-23T12:56:13;6.20;;;1.30;;
49310;SDS011;35177;45.900;5.946;2023-04-23T12:58:39;1.63;;;1.10;;
49310;SDS011;35177;45.900;5.946;2023-04-23T13:01:04;1.80;;;1.08;;
49310;SDS011;35177;45.900;5.946;2023-04-23T13:03:29;4.03;;;1.08;;
49310;SDS011;35177;45.900;5.946;2023-04-23T13:05:55;2.30;;;1.42;;
49310;SDS011;35177;45.900;5.946;2023-04-23T13:08:20;2.97;;;1.10;;
49310;SDS011;35177;45.900;5.946;2023-04-23T13:10:46;2.88;;;1.20;;
49310;SDS011;35177;45.900;5.946;2023-04-23T13:13:11;2.13;;;1.00;;
49310;SDS011;35177;45.900;5.946;2023-04-23T13:15:36;4.10;;;1.27;;
49310;SDS011;35177;45.900;5.946;2023-04-23T13:18:02;2.83;;;1.40;;
49310;SDS011;35177;45.900;5.946;2023-04-23T13:20:27;5.60;;;1.23;;
49310;SDS011;35177;45.900;5.946;2023-04-23T13:22:52;3.95;;;1.20;;
49310;SDS011;35177;45.900;5.946;2023-04-23T13:25:17;2.67;;;1.08;;
49310;SDS011;35177;45.900;5.946;2023-04-23T13:27:43;1.88;;;1.10;;
49310;SDS011;35177;45.900;5.946;2023-04-23T13:30:08;2.72;;;1.05;;
49310;SDS011;35177;45.900;5.946;2023-04-23T13:32:34;12.18;;;1.58;;
49310;SDS011;35177;45.900;5.946;2023-04-23T13:34:59;14.88;;;1.95;;
49310;SDS011;35177;45.900;5.946;2023-04-23T13:37:27;1.75;;;1.13;;
49310;SDS011;35177;45.900;5.946;2023-04-23T13:39:53;6.78;;;1.30;;
49310;SDS011;35177;45.900;5.946;2023-04-23T13:42:18;7.93;;;1.60;;
49310;SDS011;35177;45.900;5.946;2023-04-23T13:44:43;6.75;;;1.23;;
49310;SDS011;35177;45.900;5.946;2023-04-23T13:47:09;2.88;;;1.02;;
49310;SDS011;35177;45.900;5.946;2023-04-23T13:49:34;2.58;;;1.05;;
49310;SDS011;35177;45.900;5.946;2023-04-23T13:52:01;2.90;;;1.33;;
49310;SDS011;35177;45.900;5.946;2023-04-23T13:54:30;3.60;;;1.20;;
49310;SDS011;35177;45.900;5.946;2023-04-23T13:56:55;2.25;;;1.10;;
49310;SDS011;35177;45.900;5.946;2023-04-23T13:59:21;4.13;;;1.00;;
49310;SDS011;35177;45.900;5.946;2023-04-23T14:01:46;3.15;;;1.02;;
49310;SDS011;35177;45.900;5.946;2023-04-23T14:04:15;2.72;;;1.27;;
49310;SDS011;35177;45.900;5.946;2023-04-23T14:06:40;1.70;;;0.98;;
49310;SDS011;35177;45.900;5.946;2023-04-23T14:09:06;1.83;;;0.95;;
49310;SDS011;35177;45.900;5.946;2023-04-23T14:11:31;2.90;;;1.02;;
49310;SDS011;35177;45.900;5.946;2023-04-23T14:13:56;3.05;;;1.00;;
49310;SDS011;35177;45.900;5.946;2023-04-23T14:16:22;2.10;;;0.85;;
49310;SDS011;35177;45.900;5.946;2023-04-23T14:18:47;1.00;;;0.70;;
49310;SDS011;35177;45.900;5.946;2023-04-23T14:21:13;5.72;;;1.15;;
49310;SDS011;35177;45.900;5.946;2023-04-23T14:23:48;1.42;;;0.82;;
49310;SDS011;35177;45.900;5.946;2023-04-23T14:28:56;0.60;;;0.57;;
49310;SDS011;35177;45.900;5.946;2023-04-23T14:31:21;1.42;;;0.80;;
49310;SDS011;35177;45.900;5.946;2023-04-23T14:33:46;1.98;;;0.63;;
49310;SDS011;35177;45.900;5.946;2023-04-23T14:36:12;0.52;;;0.52;;
49310;SDS011;35177;45.900;5.946;2023-04-23T14:38:37;2.08;;;0.73;;
49310;SDS011;35177;45.900;5.946;2023-04-23T14:41:04;1.90;;;1.23;;
49310;SDS011;35177;45.900;5.946;2023-04-23T14:43:29;1.60;;;0.70;;
49310;SDS011;35177;45.900;5.946;2023-04-23T14:45:54;4.30;;;0.70;;
49310;SDS011;35177;45.900;5.946;2023-04-23T14:48:20;1.08;;;0.63;;
49310;SDS011;35177;45.900;5.946;2023-04-23T14:50:45;4.03;;;1.02;;
49310;SDS011;35177;45.900;5.946;2023-04-23T14:53:10;2.70;;;0.95;;
49310;SDS011;35177;45.900;5.946;2023-04-23T14:55:36;3.70;;;1.38;;